Aviation Digital Data Service (ADDS)

Output produced by METARs form (1541 UTC 23 January 2019)
found at http://www.aviationweather.gov/metar/data/
 
Forecast for: ETND (DIEPHOLZ (GER-AF, DE)
Text: TAF ETND 231121Z 2312/2321 09008KT 8000 NSW SCT015 SCT120 BKN180
Forecast period: 1200 to 2100 UTC 23 January 2019
Forecast type: FROM: standard forecast or significant change
Winds: from the E (90 degrees) at 9 MPH (8 knots; 4.1 m/s)
Visibility: 5 miles (8 km)
Ceiling: 18000 feet AGL
Clouds: scattered clouds at 1500 feet AGL
scattered clouds at 12000 feet AGL
broken clouds at 18000 feet AGL
Weather: NSW  (no significant weather)
Text: TEMPO 2312/2321 11005KT 6000 NSW BKN012 BKN120 BY ETGL
Forecast period: 1200 to 2100 UTC 23 January 2019
Forecast type: TEMPORARY: The following changes expected for less than half the time period
Winds: from the ESE (110 degrees) at 6 MPH (5 knots; 2.6 m/s)
Visibility: 4 miles (6 km)
Ceiling: 1200 feet AGL
Clouds: broken clouds at 1200 feet AGL
broken clouds at 12000 feet AGL
Weather: NSW  (no significant weather)